.
WxDataArchive / Data Records for 2013-10-30
2013-10-29 October 2013 2013-10-31

Data Records for Wednesday, 30 October 2013

Time	Temp	Chill	HIndex	Humid	Dewpt	 Wind 	HiWind	WindDir	Rain 	Barom 
-----	----	-----	------	-----	-----	------	------	-------	-----	----- 
00:00	46.2	46.2	46.2	80	40.4	0	1	68	0.00	30.214 
00:05	46.2	46.2	46.2	80	40.4	0	1	68	0.00	30.214 
00:10	46.2	46.2	46.2	80	40.4	0	0	---	0.00	30.214 
00:15	46.1	46.1	46.1	81	40.6	0	0	---	0.00	30.203 
00:20	46.1	46.1	46.1	81	40.6	0	0	---	0.00	30.203 
00:25	46.0	46.0	46.0	81	40.5	0	1	68	0.00	30.203 
00:30	46.0	46.0	46.0	81	40.5	0	0	---	0.00	30.199 
00:35	46.0	46.0	46.0	81	40.5	0	1	68	0.00	30.199 
00:40	45.8	45.8	45.8	81	40.3	0	0	---	0.00	30.199 
00:45	45.8	45.8	45.8	81	40.3	0	0	---	0.00	30.195 
00:50	46.0	46.0	46.0	81	40.5	0	1	68	0.00	30.195 
00:55	46.0	46.0	46.0	81	40.5	0	1	68	0.00	30.195 
01:00	46.0	46.0	46.0	81	40.5	0	0	---	0.00	30.182 
01:05	46.0	46.0	46.0	81	40.5	0	1	68	0.00	30.182 
01:10	46.1	46.1	46.1	81	40.6	0	0	---	0.00	30.182 
01:15	46.0	46.0	46.0	81	40.5	0	1	68	0.00	30.174 
01:20	46.0	46.0	46.0	81	40.5	0	0	---	0.00	30.174 
01:25	46.0	46.0	46.0	81	40.5	0	0	---	0.00	30.174 
01:30	46.0	46.0	46.0	81	40.5	0	0	---	0.00	30.166 
01:35	45.8	45.8	45.8	81	40.3	0	0	---	0.00	30.166 
01:40	45.8	45.8	45.8	81	40.3	0	0	---	0.00	30.166 
01:45	45.7	45.7	45.7	81	40.2	0	0	---	0.00	30.174 
01:50	45.7	45.7	45.7	81	40.2	0	0	---	0.00	30.174 
01:55	45.7	45.7	45.7	82	40.5	0	0	---	0.00	30.174 
02:00	45.5	45.5	45.5	82	40.3	0	0	---	0.00	30.168 
02:05	45.5	45.5	45.5	82	40.3	0	0	---	0.00	30.168 
02:10	45.4	45.4	45.4	82	40.2	0	0	---	0.00	30.168 
02:15	45.4	45.4	45.4	82	40.2	0	1	68	0.00	30.155 
02:20	45.4	45.4	45.4	83	40.5	0	0	---	0.00	30.155 
02:25	45.4	45.4	45.4	83	40.5	0	0	---	0.00	30.155 
02:30	45.2	45.2	45.2	83	40.3	0	0	---	0.00	30.151 
02:35	45.2	45.2	45.2	83	40.3	0	1	68	0.00	30.151 
02:40	45.2	45.2	45.2	83	40.3	0	0	---	0.00	30.151 
02:45	45.4	45.4	45.4	83	40.5	0	0	---	0.00	30.149 
02:50	45.4	45.4	45.4	83	40.5	0	0	---	0.00	30.149 
02:55	45.2	45.2	45.2	83	40.3	0	0	---	0.00	30.149 
03:00	45.2	45.2	45.2	83	40.3	0	0	---	0.00	30.138 
03:05	45.2	45.2	45.2	83	40.3	0	0	---	0.00	30.138 
03:10	45.1	45.1	45.1	83	40.3	0	0	---	0.00	30.138 
03:15	44.9	44.9	44.9	83	40.1	0	0	---	0.00	30.138 
03:20	44.8	44.8	44.8	84	40.3	0	0	---	0.00	30.138 
03:25	44.6	44.6	44.6	84	40.1	0	0	---	0.00	30.138 
03:30	44.5	44.5	44.5	84	40.0	0	0	---	0.00	30.140 
03:35	44.2	44.2	44.2	84	39.7	0	0	---	0.00	30.140 
03:40	43.9	43.9	43.9	84	39.4	0	0	---	0.00	30.140 
03:45	43.6	43.6	43.6	84	39.1	0	0	---	0.00	30.139 
03:50	43.3	43.3	43.3	84	38.8	0	0	---	0.00	30.139 
03:55	43.1	43.1	43.1	85	38.9	0	0	---	0.00	30.139 
04:00	42.8	42.8	42.8	85	38.6	0	0	---	0.00	30.145 
04:05	42.5	42.5	42.5	86	38.6	0	0	---	0.00	30.145 
04:10	42.3	42.3	42.3	86	38.4	0	0	---	0.00	30.145 
04:15	42.1	42.1	42.1	86	38.2	0	0	---	0.00	30.139 
04:20	41.9	41.9	41.9	86	38.0	0	0	---	0.00	30.139 
04:25	41.6	41.6	41.6	87	38.0	0	0	---	0.00	30.139 
04:30	41.5	41.5	41.5	87	37.9	0	0	---	0.00	30.139 
04:35	41.3	41.3	41.3	87	37.7	0	0	---	0.00	30.139 
04:40	41.1	41.1	41.1	88	37.8	0	0	---	0.00	30.139 
04:45	40.8	40.8	40.8	88	37.5	0	0	---	0.00	30.139 
04:50	40.6	40.6	40.6	88	37.3	0	0	---	0.00	30.139 
04:55	40.5	40.5	40.5	88	37.2	0	0	---	0.00	30.139 
05:00	40.3	40.3	40.3	88	37.0	0	0	---	0.00	30.138 
05:05	40.1	40.1	40.1	89	37.1	0	0	---	0.00	30.138 
05:10	39.9	39.9	39.9	89	36.9	0	0	---	0.00	30.138 
05:15	39.8	39.8	39.8	89	36.8	0	0	---	0.00	30.140 
05:20	39.6	39.6	39.6	89	36.6	0	0	---	0.00	30.140 
05:25	39.5	39.5	39.5	89	36.5	0	0	---	0.00	30.140 
05:30	39.3	39.3	39.3	89	36.3	0	0	---	0.00	30.143 
05:35	39.2	39.2	39.2	90	36.5	0	0	---	0.00	30.143 
05:40	39.1	39.1	39.1	90	36.4	0	0	---	0.00	30.143 
05:45	38.9	38.9	38.9	90	36.2	0	0	---	0.00	30.147 
05:50	38.9	38.9	38.9	90	36.2	0	0	---	0.00	30.147 
05:55	38.8	38.8	38.8	90	36.1	0	0	---	0.00	30.147 
06:00	38.5	38.5	38.5	90	35.8	0	0	---	0.00	30.147 
06:05	38.5	38.5	38.5	90	35.8	0	0	---	0.00	30.147 
06:10	38.3	38.3	38.3	91	35.9	0	0	---	0.00	30.147 
06:15	38.3	38.3	38.3	91	35.9	0	0	---	0.00	30.154 
06:20	38.2	38.2	38.2	91	35.8	0	0	---	0.00	30.154 
06:25	38.2	38.2	38.2	91	35.8	0	0	---	0.00	30.154 
06:30	38.0	38.0	38.0	91	35.6	0	0	---	0.00	30.157 
06:35	38.0	38.0	38.0	91	35.6	0	0	---	0.00	30.157 
06:40	38.0	38.0	38.0	91	35.6	0	0	---	0.00	30.157 
06:45	38.2	38.2	38.2	92	36.1	0	0	---	0.00	30.159 
06:50	38.3	38.3	38.3	92	36.2	0	0	---	0.00	30.159 
06:55	38.3	38.3	38.3	92	36.2	0	0	---	0.00	30.159 
07:00	38.2	38.2	38.2	92	36.1	0	0	---	0.00	30.160 
07:05	38.2	38.2	38.2	92	36.1	0	0	---	0.00	30.160 
07:10	38.2	38.2	38.2	92	36.1	0	0	---	0.00	30.160 
07:15	38.0	38.0	38.0	92	35.9	0	0	---	0.00	30.161 
07:20	38.0	38.0	38.0	92	35.9	0	0	---	0.00	30.161 
07:25	38.0	38.0	38.0	92	35.9	0	0	---	0.00	30.161 
07:30	37.9	37.9	37.9	92	35.8	0	0	---	0.00	30.156 
07:35	37.9	37.9	37.9	92	35.8	0	0	---	0.00	30.156 
07:40	37.9	37.9	37.9	92	35.8	0	0	---	0.00	30.156 
07:45	37.9	37.9	37.9	92	35.8	0	0	---	0.00	30.157 
07:50	37.9	37.9	37.9	92	35.8	0	0	---	0.00	30.157 
07:55	38.0	38.0	38.0	92	35.9	0	0	---	0.00	30.157 
08:00	38.3	38.3	38.3	93	36.5	0	0	---	0.00	30.148 
08:05	38.3	38.3	38.3	93	36.5	0	0	---	0.00	30.148 
08:10	38.5	38.5	38.5	93	36.7	0	0	---	0.00	30.148 
08:15	38.5	38.5	38.5	93	36.7	0	0	---	0.00	30.147 
08:20	38.6	38.6	38.6	93	36.8	0	0	---	0.00	30.147 
08:25	38.8	38.8	38.8	93	37.0	0	0	---	0.00	30.147 
08:30	38.9	38.9	38.9	93	37.1	0	0	---	0.00	30.156 
08:35	39.2	39.2	39.2	93	37.3	0	0	---	0.00	30.156 
08:40	39.5	39.5	39.5	94	37.9	0	1	68	0.00	30.156 
08:45	39.9	39.9	39.9	94	38.3	0	0	---	0.00	30.155 
08:50	40.3	40.3	40.3	94	38.7	0	0	---	0.00	30.155 
08:55	40.8	40.8	40.8	94	39.2	0	1	68	0.00	30.155 
09:00	41.1	41.1	41.1	94	39.5	1	2	68	0.00	30.159 
09:05	41.3	41.3	41.3	94	39.7	0	1	68	0.00	30.159 
09:10	41.6	41.6	41.6	93	39.7	0	2	68	0.00	30.159 
09:15	41.8	41.8	41.8	93	39.9	0	1	68	0.00	30.172 
09:20	41.9	41.9	41.9	93	40.0	0	1	68	0.00	30.172 
09:25	42.2	42.2	42.2	92	40.0	0	2	68	0.00	30.172 
09:30	42.3	42.3	42.3	92	40.1	0	1	68	0.00	30.176 
09:35	42.6	42.6	42.6	92	40.4	0	2	68	0.00	30.176 
09:40	42.8	42.8	42.8	91	40.4	0	2	68	0.00	30.176 
09:45	43.1	43.1	43.1	91	40.7	0	1	68	0.00	30.174 
09:50	43.3	43.3	43.3	90	40.6	0	2	68	0.00	30.174 
09:55	43.5	43.5	43.5	90	40.8	0	2	68	0.00	30.174 
10:00	43.6	43.6	43.6	89	40.6	0	2	68	0.00	30.174 
10:05	43.8	43.8	43.8	89	40.8	1	3	68	0.00	30.174 
10:10	44.1	44.1	44.1	88	40.8	0	2	68	0.00	30.174 
10:15	44.2	44.2	44.2	88	40.9	0	2	68	0.00	30.172 
10:20	44.5	44.5	44.5	87	40.9	0	1	68	0.00	30.172 
10:25	44.8	44.8	44.8	87	41.2	0	2	68	0.00	30.172 
10:30	45.1	45.1	45.1	86	41.2	0	2	68	0.00	30.163 
10:35	45.2	45.2	45.2	86	41.3	0	2	68	0.00	30.163 
10:40	45.5	45.5	45.5	86	41.6	1	3	68	0.00	30.163 
10:45	45.8	45.8	45.8	85	41.6	0	3	68	0.00	30.158 
10:50	46.2	46.2	46.2	84	41.6	0	2	68	0.00	30.158 
10:55	46.5	46.5	46.5	84	41.9	0	1	68	0.00	30.158 
11:00	47.0	47.0	47.0	84	42.4	0	2	68	0.00	30.153 
11:05	47.6	47.6	47.6	83	42.7	1	3	68	0.00	30.153 
11:10	48.3	48.3	48.3	82	43.1	1	3	68	0.00	30.153 
11:15	48.9	48.9	48.9	81	43.3	1	3	68	0.00	30.149 
11:20	49.4	49.4	49.4	81	43.8	1	3	68	0.00	30.149 
11:25	49.8	49.8	49.8	81	44.2	0	2	68	0.00	30.149 
11:30	50.1	50.1	50.1	80	44.2	0	3	68	0.00	30.151 
11:35	50.4	50.4	50.4	80	44.5	0	0	---	0.00	30.151 
11:40	50.7	50.7	50.7	79	44.4	0	0	---	0.00	30.151 
11:45	51.0	51.0	51.0	79	44.7	0	1	45	0.00	30.154 
11:50	51.0	51.0	51.0	79	44.7	1	3	45	0.00	30.154 
11:55	51.1	51.1	51.1	79	44.8	0	2	45	0.00	30.154 
12:00	51.3	51.3	51.3	79	45.0	0	2	45	0.00	30.158 
12:05	51.6	51.6	51.6	80	45.6	1	2	45	0.00	30.158 
12:10	51.7	51.7	51.7	79	45.4	0	1	45	0.00	30.158 
12:15	51.9	51.9	51.9	79	45.6	0	2	45	0.00	30.151 
12:20	52.0	52.0	52.0	79	45.7	0	1	45	0.00	30.151 
12:25	52.5	52.5	52.5	80	46.5	0	1	45	0.00	30.151 
12:30	52.8	52.8	52.8	79	46.5	1	3	45	0.00	30.148 
12:35	52.9	52.9	52.9	79	46.6	1	3	22	0.00	30.148 
12:40	53.2	53.2	53.2	79	46.9	0	1	45	0.00	30.148 
12:45	53.3	53.3	53.3	78	46.6	1	4	45	0.00	30.140 
12:50	53.6	53.6	53.6	78	46.9	1	4	90	0.00	30.140 
12:55	53.8	53.8	53.8	79	47.4	1	3	90	0.00	30.140 
13:00	54.2	54.2	54.2	78	47.5	0	1	90	0.00	30.133 
13:05	54.5	54.5	54.5	77	47.4	1	2	90	0.00	30.133 
13:10	55.0	55.0	55.0	77	47.9	1	3	90	0.00	30.133 
13:15	55.6	55.6	55.6	77	48.5	1	2	90	0.00	30.113 
13:20	56.0	56.0	56.0	76	48.5	1	3	90	0.00	30.113 
13:25	56.6	56.6	56.6	76	49.1	1	3	90	0.00	30.113 
13:30	56.9	56.9	56.9	75	49.1	1	4	90	0.00	30.089 
13:35	57.3	57.3	57.3	75	49.4	2	5	90	0.00	30.089 
13:40	57.6	57.6	57.6	75	49.7	1	4	90	0.00	30.089 
13:45	58.1	58.1	58.1	75	50.2	2	5	90	0.00	30.080 
13:50	58.3	58.3	58.3	74	50.0	1	3	90	0.00	30.080 
13:55	58.6	58.6	58.6	75	50.7	1	2	90	0.00	30.080 
14:00	58.9	58.9	58.9	74	50.6	1	3	248	0.00	30.083 
14:05	59.3	59.3	59.3	73	50.6	0	2	180	0.00	30.083 
14:10	59.6	59.6	59.6	73	50.9	0	2	135	0.00	30.083 
14:15	60.1	60.1	60.1	73	51.4	2	4	68	0.00	30.066 
14:20	60.2	60.2	60.2	73	51.5	1	4	68	0.00	30.066 
14:25	60.4	60.4	60.4	73	51.7	2	6	90	0.00	30.066 
14:30	60.7	60.7	60.7	74	52.4	1	6	90	0.00	30.058 
14:35	61.3	61.3	61.3	73	52.6	1	4	112	0.00	30.058 
14:40	61.8	61.8	61.8	71	52.3	1	4	112	0.00	30.058 
14:45	62.0	62.0	62.0	71	52.5	2	5	112	0.00	30.052 
14:50	61.8	61.8	61.8	71	52.3	2	7	135	0.00	30.052 
14:55	61.6	61.6	61.6	72	52.5	1	4	135	0.00	30.052 
15:00	61.5	61.5	61.5	73	52.8	1	4	90	0.00	30.058 
15:05	61.5	61.5	61.5	73	52.8	0	2	90	0.00	30.058 
15:10	61.6	61.6	61.6	73	52.9	1	4	90	0.00	30.058 
15:15	61.6	61.6	61.6	73	52.9	2	5	68	0.00	30.050 
15:20	61.8	61.8	61.8	73	53.0	1	3	68	0.00	30.050 
15:25	62.0	62.0	62.0	73	53.2	1	4	68	0.00	30.050 
15:30	62.0	62.0	62.0	74	53.6	2	4	68	0.00	30.043 
15:35	62.1	62.1	62.1	74	53.7	1	3	68	0.00	30.043 
15:40	62.1	62.1	62.1	74	53.7	1	3	68	0.00	30.043 
15:45	62.3	62.3	62.3	74	53.9	1	4	68	0.00	30.032 
15:50	62.4	62.4	62.4	73	53.6	0	3	68	0.00	30.032 
15:55	62.4	62.4	62.4	73	53.6	0	2	68	0.00	30.032 
16:00	62.6	62.6	62.6	73	53.8	0	2	68	0.00	30.046 
16:05	62.6	62.6	62.6	73	53.8	0	4	68	0.00	30.046 
16:10	62.6	62.6	62.6	74	54.2	0	2	68	0.00	30.046 
16:15	62.7	62.7	62.7	73	53.9	0	2	68	0.00	30.049 
16:20	62.7	62.7	62.7	73	53.9	0	2	68	0.00	30.049 
16:25	62.7	62.7	62.7	74	54.3	0	1	68	0.00	30.049 
16:30	62.7	62.7	62.7	74	54.3	0	3	68	0.00	30.036 
16:35	62.7	62.7	62.7	74	54.3	0	1	68	0.00	30.036 
16:40	62.7	62.7	62.7	75	54.7	0	1	68	0.00	30.036 
16:45	62.9	62.9	62.9	74	54.5	0	2	68	0.00	30.020 
16:50	62.9	62.9	62.9	75	54.8	0	3	68	0.00	30.020 
16:55	63.1	63.1	63.1	74	54.7	0	3	68	0.00	30.020 
17:00	63.1	63.1	63.1	74	54.7	0	3	112	0.00	30.016 
17:05	63.1	63.1	63.1	74	54.7	1	3	112	0.00	30.016 
17:10	63.1	63.1	63.1	74	54.7	0	3	45	0.00	30.016 
17:15	62.9	62.9	62.9	75	54.8	0	2	45	0.00	30.027 
17:20	62.9	62.9	62.9	75	54.8	0	2	45	0.00	30.027 
17:25	62.9	62.9	62.9	75	54.8	0	1	45	0.00	30.027 
17:30	62.7	62.7	62.7	75	54.7	0	2	45	0.00	30.021 
17:35	62.7	62.7	62.7	75	54.7	0	1	45	0.00	30.021 
17:40	62.7	62.7	62.7	76	55.0	0	2	45	0.00	30.021 
17:45	62.6	62.6	62.6	76	54.9	1	3	112	0.00	30.015 
17:50	62.6	62.6	62.6	76	54.9	0	2	112	0.00	30.015 
17:55	62.4	62.4	62.4	77	55.1	0	3	112	0.00	30.015 
18:00	62.4	62.4	62.4	77	55.1	0	3	112	0.00	30.020 
18:05	62.3	62.3	62.3	77	55.0	0	1	112	0.00	30.020 
18:10	62.3	62.3	62.3	77	55.0	0	1	112	0.00	30.020 
18:15	62.1	62.1	62.1	77	54.8	0	2	112	0.00	30.018 
18:20	62.1	62.1	62.1	78	55.2	0	1	112	0.00	30.018 
18:25	62.0	62.0	62.0	78	55.1	0	1	112	0.00	30.018 
18:30	62.0	62.0	62.0	79	55.4	0	4	112	0.00	30.005 
18:35	61.8	61.8	61.8	79	55.2	1	5	112	0.00	30.005 
18:40	61.8	61.8	61.8	80	55.6	0	2	90	0.00	30.005 
18:45	61.8	61.8	61.8	81	55.9	1	3	90	0.00	30.005 
18:50	61.6	61.6	61.6	81	55.7	0	2	90	0.00	30.005 
18:55	61.6	61.6	61.6	81	55.7	0	1	90	0.00	30.005 
19:00	61.5	61.5	61.5	81	55.6	0	1	90	0.00	30.008 
19:05	61.5	61.5	61.5	81	55.6	0	1	90	0.00	30.008 
19:10	61.3	61.3	61.3	82	55.8	0	2	90	0.00	30.008 
19:15	61.3	61.3	61.3	82	55.8	0	2	90	0.00	30.014 
19:20	61.2	61.2	61.2	82	55.7	0	1	90	0.00	30.014 
19:25	61.2	61.2	61.2	82	55.7	0	2	112	0.00	30.014 
19:30	61.2	61.2	61.2	83	56.0	0	1	112	0.00	30.020 
19:35	61.2	61.2	61.2	83	56.0	0	2	68	0.00	30.020 
19:40	61.0	61.0	61.0	84	56.1	0	2	68	0.00	30.020 
19:45	61.0	61.0	61.0	84	56.1	0	1	68	0.00	30.021 
19:50	60.9	60.9	60.9	85	56.4	1	7	68	0.00	30.021 
19:55	60.7	60.7	60.7	86	56.5	1	4	158	0.00	30.021 
20:00	60.7	60.7	60.7	86	56.5	1	3	112	0.00	30.020 
20:05	60.5	60.5	60.5	87	56.6	0	2	112	0.00	30.020 
20:10	60.4	60.4	60.4	87	56.5	0	1	112	0.00	30.020 
20:15	60.2	60.2	60.2	87	56.3	0	3	112	0.00	30.017 
20:20	60.2	60.2	60.2	88	56.6	0	2	112	0.00	30.017 
20:25	60.1	60.1	60.1	88	56.5	1	5	112	0.00	30.017 
20:30	59.9	59.9	59.9	88	56.3	0	2	112	0.00	30.003 
20:35	59.9	59.9	59.9	88	56.3	1	4	112	0.00	30.003 
20:40	59.8	59.8	59.8	88	56.2	0	3	112	0.00	30.003 
20:45	59.8	59.8	59.8	89	56.5	0	3	112	0.00	30.002 
20:50	59.8	59.8	59.8	89	56.5	0	2	112	0.00	30.002 
20:55	59.6	59.6	59.6	89	56.4	0	2	112	0.00	30.002 
21:00	59.6	59.6	59.6	89	56.4	0	2	112	0.00	29.992 
21:05	59.6	59.6	59.6	90	56.7	0	3	112	0.00	29.992 
21:10	59.5	59.5	59.5	90	56.6	0	1	112	0.00	29.992 
21:15	59.5	59.5	59.5	90	56.6	0	4	112	0.00	29.974 
21:20	59.5	59.5	59.5	90	56.6	1	3	158	0.00	29.974 
21:25	59.5	59.5	59.5	91	56.9	0	3	158	0.00	29.974 
21:30	59.5	59.5	59.5	91	56.9	0	2	158	0.00	29.970 
21:35	59.3	59.3	59.3	91	56.7	0	1	158	0.00	29.970 
21:40	59.3	59.3	59.3	91	56.7	0	3	90	0.00	29.970 
21:45	59.3	59.3	59.3	92	57.0	0	1	90	0.00	29.970 
21:50	59.3	59.3	59.3	92	57.0	0	1	90	0.00	29.970 
21:55	59.2	59.2	59.2	92	56.9	0	1	90	0.00	29.970 
22:00	59.2	59.2	59.2	92	56.9	1	4	90	0.00	29.951 
22:05	59.0	59.0	59.0	92	56.7	0	2	90	0.00	29.951 
22:10	59.0	59.0	59.0	93	57.0	0	2	90	0.00	29.951 
22:15	59.0	59.0	59.0	93	57.0	0	1	90	0.00	29.936 
22:20	59.0	59.0	59.0	93	57.0	0	3	90	0.00	29.936 
22:25	59.0	59.0	59.0	93	57.0	0	2	90	0.00	29.936 
22:30	59.0	59.0	59.0	94	57.3	0	4	45	0.00	29.938 
22:35	59.2	59.2	59.2	94	57.5	1	3	45	0.00	29.938 
22:40	59.3	59.3	59.3	94	57.6	1	4	112	0.00	29.938 
22:45	59.3	59.3	59.3	94	57.6	1	3	90	0.00	29.932 
22:50	59.5	59.5	59.5	94	57.8	0	2	135	0.00	29.932 
22:55	59.5	59.5	59.5	94	57.8	0	3	135	0.00	29.932 
23:00	59.6	59.6	59.6	94	57.9	0	2	158	0.00	29.926 
23:05	59.8	59.8	59.8	95	58.4	0	3	135	0.00	29.926 
23:10	59.9	59.9	59.9	95	58.5	1	3	90	0.00	29.926 
23:15	60.2	60.2	60.2	95	58.8	1	5	68	0.00	29.917 
23:20	60.4	60.4	60.4	95	59.0	1	5	112	0.00	29.917 
23:25	60.5	60.5	60.5	95	59.1	0	2	112	0.00	29.917 
23:30	60.5	60.5	60.5	95	59.1	0	2	338	0.00	29.915 
23:35	60.7	60.7	60.7	95	59.3	0	2	338	0.00	29.915 
23:40	60.7	60.7	60.7	95	59.3	0	2	225	0.00	29.915 
23:45	60.9	60.9	60.9	95	59.5	0	2	292	0.03	29.925 
23:50	60.9	60.9	60.9	95	59.5	1	3	292	0.16	29.925 
23:55	60.9	60.9	60.9	95	59.5	0	2	292	0.01	29.925 

CoCoRaHS
IN-AL-39
A2 Web Hosting
Creative Commons License
GoDaddy
search engine by freefind advanced

loaded 2018-11-21 00:47:07 • last modified 2010-11-18 10:43:29
Privacy PolicyDisclaimer
• wx.awcolley.com is powered by PmWiki v.2002016 •
• all content (unless otherwise noted) © 2018 A W Colley